Samoth, Illinois
Current Conditions -  °F | °C
As of 3:15 AM on Monday 22 Dec 2014 (Local Time) from KM30 Reporting Station
Overcast Overcast  
Wind Chill: 39°   Ceiling: 2200
Heat Index: 42°   Visibility: 10mi
Dew Point: 35°   Wind: 5mph
Humidity: 78%   Direction: 100°E
Pressure: 29.91"   Gusts: NA
Location:  37.3798°N, 88.7652°W
Report Text: KM30 220915Z AUTO 10004KT 10SM BKN022 OVC100 06/02 A2991 RMK AO2 T00550019
Loading
Personal Weather Stations






























Interactive Weather Map New forecast layout! Learn more

10-Day Weather Forecast

Advertisements
Track Severe Weather on mobile